Time;durP1;ratioP1;P1;durP2;ratioP2;P2;SDS_P1;SDS_P2;PMS_P1;PMS_P2;Temp;Humidity;BMP_temperature;BMP_pressure;BME280_temperature;BME280_humidity;BME280_pressure;Samples;Min_cycle;Max_cycle;Signal;HPM_P1;HPM_P2
2022/04/24 00:00:01;;;;;;;1.80;1.70;;;;;;;;;;5041389;28;20464;-57
2022/04/24 00:02:29;;;;;;;1.50;1.40;;;;;;;;;;5056429;28;20236;-56
2022/04/24 00:04:56;;;;;;;1.60;1.50;;;;;;;;;;5056016;28;20213;-57
2022/04/24 00:07:23;;;;;;;1.42;1.33;;;;;;;;;;5056052;28;20277;-57
2022/04/24 00:09:51;;;;;;;1.45;1.35;;;;;;;;;;5056122;28;20201;-57
2022/04/24 00:12:18;;;;;;;1.70;1.60;;;;;;;;;;5049437;28;20194;-57
2022/04/24 00:14:48;;;;;;;1.67;1.58;;;;;;;;;;5036069;28;20206;-56
2022/04/24 00:17:16;;;;;;;1.60;1.50;;;;;;;;;;5035551;28;20267;-57
2022/04/24 00:19:44;;;;;;;1.48;1.38;;;;;;;;;;5035602;28;20232;-56
2022/04/24 00:22:11;;;;;;;1.70;1.60;;;;;;;;;;5035778;28;20624;-57
2022/04/24 00:24:38;;;;;;;1.77;1.67;;;;;;;;;;5035654;28;20205;-57
2022/04/24 00:27:07;;;;;;;1.70;1.60;;;;;;;;;;5035413;28;20387;-57
2022/04/24 00:29:34;;;;;;;1.80;1.70;;;;;;;;;;5036399;28;20198;-57
2022/04/24 00:32:03;;;;;;;1.70;1.60;;;;;;;;;;5035398;28;20202;-57
2022/04/24 00:34:30;;;;;;;1.70;1.60;;;;;;;;;;5050759;28;20197;-57
2022/04/24 00:36:58;;;;;;;1.50;1.40;;;;;;;;;;5055517;28;20787;-57
2022/04/24 00:39:25;;;;;;;1.70;1.60;;;;;;;;;;5042814;28;20217;-57
2022/04/24 00:41:53;;;;;;;1.70;1.60;;;;;;;;;;5044152;28;20622;-57
2022/04/24 00:44:21;;;;;;;1.60;1.50;;;;;;;;;;5054807;28;20200;-57
2022/04/24 00:46:52;;;;;;;1.77;1.67;;;;;;;;;;5053417;28;20205;-57
2022/04/24 00:49:21;;;;;;;1.60;1.50;;;;;;;;;;5039840;28;20205;-57
2022/04/24 00:51:48;;;;;;;1.70;1.60;;;;;;;;;;5035713;28;20238;-57
2022/04/24 00:54:16;;;;;;;1.50;1.40;;;;;;;;;;5035242;28;20212;-57
2022/04/24 00:56:44;;;;;;;1.60;1.50;;;;;;;;;;5035567;28;20206;-56
2022/04/24 00:59:12;;;;;;;2.03;1.65;;;;;;;;;;5044836;28;20259;-57
2022/04/24 01:01:40;;;;;;;1.52;1.42;;;;;;;;;;5035865;28;20201;-57
2022/04/24 01:04:08;;;;;;;1.70;1.60;;;;;;;;;;5036021;28;20201;-56
2022/04/24 01:06:39;;;;;;;1.60;1.50;;;;;;;;;;5037341;28;20202;-57
2022/04/24 01:09:10;;;;;;;1.70;1.60;;;;;;;;;;5048762;28;20234;-57
2022/04/24 01:11:38;;;;;;;1.83;1.73;;;;;;;;;;5056272;28;20470;-57
2022/04/24 01:14:05;;;;;;;1.67;1.58;;;;;;;;;;5055588;28;20212;-56
2022/04/24 01:16:33;;;;;;;1.60;1.50;;;;;;;;;;5053845;28;20200;-57
2022/04/24 01:19:00;;;;;;;1.70;1.60;;;;;;;;;;5046536;28;20201;-56
2022/04/24 01:21:29;;;;;;;1.70;1.60;;;;;;;;;;5056542;28;20209;-56
2022/04/24 01:23:57;;;;;;;1.50;1.40;;;;;;;;;;5049620;28;20222;-56
2022/04/24 01:26:24;;;;;;;1.50;1.40;;;;;;;;;;5050457;28;20769;-57
2022/04/24 01:28:51;;;;;;;1.55;1.45;;;;;;;;;;5055765;28;20209;-56
2022/04/24 01:31:19;;;;;;;1.70;1.60;;;;;;;;;;5036454;28;20206;-56
2022/04/24 01:33:46;;;;;;;2.00;1.90;;;;;;;;;;5036663;28;20204;-56
2022/04/24 01:36:13;;;;;;;1.65;1.55;;;;;;;;;;5036467;28;20491;-56
2022/04/24 01:38:42;;;;;;;2.10;1.98;;;;;;;;;;5036824;28;20210;-56
2022/04/24 01:41:10;;;;;;;1.50;1.40;;;;;;;;;;5039802;28;20197;-56
2022/04/24 01:43:37;;;;;;;1.80;1.70;;;;;;;;;;5044845;28;20528;-57
2022/04/24 01:46:05;;;;;;;1.80;1.70;;;;;;;;;;5043357;28;20336;-57
2022/04/24 01:48:33;;;;;;;1.85;1.75;;;;;;;;;;5043418;28;20208;-56
2022/04/24 01:51:01;;;;;;;1.80;1.70;;;;;;;;;;5043912;28;20237;-56
2022/04/24 01:53:28;;;;;;;1.80;1.63;;;;;;;;;;5036380;28;20229;-56
2022/04/24 01:55:58;;;;;;;1.70;1.60;;;;;;;;;;5039755;28;20216;-56
2022/04/24 01:58:25;;;;;;;1.75;1.65;;;;;;;;;;5051421;28;20579;-57
2022/04/24 02:00:53;;;;;;;1.88;1.77;;;;;;;;;;5040427;28;20236;-56
2022/04/24 02:03:21;;;;;;;1.58;1.48;;;;;;;;;;5048743;28;20213;-56
2022/04/24 02:05:48;;;;;;;1.55;1.45;;;;;;;;;;5059921;28;20602;-56
2022/04/24 02:08:16;;;;;;;1.65;1.55;;;;;;;;;;5060344;28;20205;-56
2022/04/24 02:10:44;;;;;;;1.80;1.70;;;;;;;;;;5059566;28;20205;-56
2022/04/24 02:13:12;;;;;;;1.92;1.83;;;;;;;;;;5059046;28;20212;-56
2022/04/24 02:15:41;;;;;;;1.98;1.88;;;;;;;;;;5049513;28;20213;-56
2022/04/24 02:18:08;;;;;;;1.80;1.70;;;;;;;;;;5039643;28;20387;-56
2022/04/24 02:20:36;;;;;;;1.67;1.58;;;;;;;;;;5039088;28;20206;-56
2022/04/24 02:23:04;;;;;;;2.10;2.00;;;;;;;;;;5039266;28;20233;-56
2022/04/24 02:25:32;;;;;;;1.88;1.77;;;;;;;;;;5039193;28;20220;-57
2022/04/24 02:27:59;;;;;;;1.92;1.83;;;;;;;;;;5044885;28;20579;-57
2022/04/24 02:30:29;;;;;;;1.70;1.60;;;;;;;;;;5047105;28;20197;-56
2022/04/24 02:32:58;;;;;;;1.77;1.67;;;;;;;;;;5038957;28;20208;-57
2022/04/24 02:35:25;;;;;;;1.75;1.65;;;;;;;;;;5038819;28;20661;-57
2022/04/24 02:37:53;;;;;;;2.10;2.00;;;;;;;;;;5038160;28;20448;-56
2022/04/24 02:40:21;;;;;;;1.77;1.67;;;;;;;;;;5049354;28;20201;-57
2022/04/24 02:42:49;;;;;;;1.80;1.70;;;;;;;;;;5057073;28;20214;-56
2022/04/24 02:45:18;;;;;;;1.77;1.67;;;;;;;;;;5039599;28;20201;-57
2022/04/24 02:47:46;;;;;;;1.80;1.70;;;;;;;;;;5038108;28;20198;-56
2022/04/24 02:50:14;;;;;;;2.25;1.77;;;;;;;;;;5038800;28;20206;-56
2022/04/24 02:52:49;;;;;;;1.77;1.67;;;;;;;;;;5025349;28;20226;-56
2022/04/24 02:55:16;;;;;;;2.28;2.08;;;;;;;;;;5038066;28;20228;-56
2022/04/24 02:57:44;;;;;;;2.60;2.00;;;;;;;;;;5049736;28;20224;-57
2022/04/24 03:00:12;;;;;;;1.98;1.88;;;;;;;;;;5038309;28;20209;-57
2022/04/24 03:02:43;;;;;;;1.60;1.50;;;;;;;;;;5040223;28;20235;-56
2022/04/24 03:05:14;;;;;;;1.90;1.80;;;;;;;;;;5057552;28;20201;-56
2022/04/24 03:07:41;;;;;;;1.80;1.70;;;;;;;;;;5057709;28;20205;-56
2022/04/24 03:10:09;;;;;;;1.85;1.75;;;;;;;;;;5057462;28;20254;-56
2022/04/24 03:12:37;;;;;;;1.70;1.60;;;;;;;;;;5057497;28;20494;-56
2022/04/24 03:15:04;;;;;;;2.00;1.90;;;;;;;;;;5057853;28;20595;-57
2022/04/24 03:17:32;;;;;;;2.20;2.00;;;;;;;;;;5050410;28;20198;-56
2022/04/24 03:19:59;;;;;;;2.00;1.90;;;;;;;;;;5038237;28;20202;-57
2022/04/24 03:22:30;;;;;;;2.15;2.00;;;;;;;;;;5037744;28;20587;-57
2022/04/24 03:24:57;;;;;;;2.15;2.05;;;;;;;;;;5040267;28;20197;-56
2022/04/24 03:27:25;;;;;;;2.10;2.00;;;;;;;;;;5056495;28;20201;-57
2022/04/24 03:29:52;;;;;;;2.40;2.30;;;;;;;;;;5057550;28;20228;-56
2022/04/24 03:32:20;;;;;;;2.10;2.00;;;;;;;;;;5057745;28;20213;-56
2022/04/24 03:34:48;;;;;;;2.10;2.00;;;;;;;;;;5037836;28;20385;-56
2022/04/24 03:37:15;;;;;;;1.92;1.83;;;;;;;;;;5036721;28;20213;-56
2022/04/24 03:39:44;;;;;;;2.00;1.90;;;;;;;;;;5037362;28;20201;-57
2022/04/24 03:42:11;;;;;;;2.20;2.00;;;;;;;;;;5037486;28;20206;-56
2022/04/24 03:44:38;;;;;;;2.10;2.00;;;;;;;;;;5036740;28;20228;-56
2022/04/24 03:47:06;;;;;;;2.35;2.25;;;;;;;;;;5037428;28;20209;-56
2022/04/24 03:49:34;;;;;;;2.22;2.10;;;;;;;;;;5037081;28;20283;-57
2022/04/24 03:52:01;;;;;;;2.10;2.00;;;;;;;;;;5037511;28;20653;-56
2022/04/24 03:54:28;;;;;;;2.50;2.30;;;;;;;;;;5036865;28;20213;-56
2022/04/24 03:56:57;;;;;;;2.33;2.15;;;;;;;;;;5036522;28;20205;-56
2022/04/24 03:59:24;;;;;;;2.17;2.08;;;;;;;;;;5036101;28;20731;-56
2022/04/24 04:01:52;;;;;;;2.47;2.30;;;;;;;;;;5036565;28;20281;-56
2022/04/24 04:04:19;;;;;;;2.38;2.20;;;;;;;;;;5035589;28;20243;-56
2022/04/24 04:06:47;;;;;;;2.25;2.05;;;;;;;;;;5036750;28;20205;-56
2022/04/24 04:09:14;;;;;;;1.98;1.88;;;;;;;;;;5037094;28;20197;-57
2022/04/24 04:11:41;;;;;;;2.33;2.13;;;;;;;;;;5036756;28;20260;-56
2022/04/24 04:14:10;;;;;;;2.40;2.20;;;;;;;;;;5036533;28;20368;-56
2022/04/24 04:16:40;;;;;;;2.15;2.05;;;;;;;;;;5035686;28;20216;-56
2022/04/24 04:19:07;;;;;;;2.05;1.95;;;;;;;;;;5036395;28;20213;-56
2022/04/24 04:21:35;;;;;;;2.28;2.17;;;;;;;;;;5036152;28;20517;-56
2022/04/24 04:24:02;;;;;;;2.30;2.20;;;;;;;;;;5036337;28;20241;-57
2022/04/24 04:26:29;;;;;;;2.45;2.25;;;;;;;;;;5036513;28;20205;-56
2022/04/24 04:28:57;;;;;;;2.20;2.10;;;;;;;;;;5036016;28;20197;-56
2022/04/24 04:31:26;;;;;;;2.10;2.00;;;;;;;;;;5035882;28;20512;-56
2022/04/24 04:33:53;;;;;;;2.53;2.35;;;;;;;;;;5035926;28;20221;-56
2022/04/24 04:36:21;;;;;;;2.60;2.40;;;;;;;;;;5036347;28;20205;-56
2022/04/24 04:38:48;;;;;;;2.15;2.05;;;;;;;;;;5035794;28;20228;-56
2022/04/24 04:41:16;;;;;;;2.55;2.35;;;;;;;;;;5035614;28;20202;-56
2022/04/24 04:43:43;;;;;;;2.55;2.38;;;;;;;;;;5035609;28;20236;-56
2022/04/24 04:46:10;;;;;;;2.40;2.30;;;;;;;;;;5035406;28;20205;-56
2022/04/24 04:48:39;;;;;;;2.30;2.20;;;;;;;;;;5035733;28;20206;-56
2022/04/24 04:51:07;;;;;;;2.22;2.13;;;;;;;;;;5036011;28;20260;-57
2022/04/24 04:53:34;;;;;;;2.50;2.30;;;;;;;;;;5035796;28;20205;-57
2022/04/24 04:56:02;;;;;;;2.47;2.38;;;;;;;;;;5035941;28;20205;-56
2022/04/24 04:58:30;;;;;;;2.67;2.55;;;;;;;;;;5035141;28;20197;-56
2022/04/24 05:01:00;;;;;;;2.53;2.40;;;;;;;;;;5035060;28;20209;-56
2022/04/24 05:03:27;;;;;;;2.75;2.55;;;;;;;;;;5035387;28;20231;-56
2022/04/24 05:05:56;;;;;;;2.47;2.30;;;;;;;;;;5035731;28;20216;-56
2022/04/24 05:08:23;;;;;;;2.35;2.15;;;;;;;;;;5036100;28;20595;-56
2022/04/24 05:10:51;;;;;;;2.58;2.45;;;;;;;;;;5036397;28;20202;-56
2022/04/24 05:13:18;;;;;;;2.60;2.40;;;;;;;;;;5035937;28;20371;-56
2022/04/24 05:15:46;;;;;;;2.45;2.25;;;;;;;;;;5036239;28;20278;-56
2022/04/24 05:18:13;;;;;;;2.40;2.30;;;;;;;;;;5035276;28;20591;-56
2022/04/24 05:20:42;;;;;;;2.63;2.42;;;;;;;;;;5035942;28;20522;-56
2022/04/24 05:23:12;;;;;;;2.35;2.25;;;;;;;;;;5041707;28;20201;-56
2022/04/24 05:25:39;;;;;;;2.53;2.40;;;;;;;;;;5048963;28;20206;-56
2022/04/24 05:28:07;;;;;;;2.92;2.72;;;;;;;;;;5053842;28;20197;-56
2022/04/24 05:30:34;;;;;;;2.70;2.50;;;;;;;;;;5051474;28;20202;-57
2022/04/24 05:33:02;;;;;;;2.92;2.72;;;;;;;;;;5040914;28;20200;-56
2022/04/24 05:35:29;;;;;;;2.67;2.47;;;;;;;;;;5056489;28;20232;-56
2022/04/24 05:37:57;;;;;;;2.60;2.40;;;;;;;;;;5055268;28;20197;-56
2022/04/24 05:40:26;;;;;;;2.45;2.30;;;;;;;;;;5055319;28;20211;-56
2022/04/24 05:42:54;;;;;;;2.60;2.40;;;;;;;;;;5043334;28;20576;-57
2022/04/24 05:45:22;;;;;;;3.00;2.80;;;;;;;;;;5046158;28;20626;-56
2022/04/24 05:47:50;;;;;;;2.40;2.30;;;;;;;;;;5054829;28;20209;-56
2022/04/24 05:50:18;;;;;;;2.55;2.40;;;;;;;;;;5055241;28;20299;-57
2022/04/24 05:52:45;;;;;;;2.78;2.58;;;;;;;;;;5054720;28;20224;-56
2022/04/24 05:55:14;;;;;;;2.80;2.60;;;;;;;;;;5055592;28;20200;-56
2022/04/24 05:57:42;;;;;;;2.70;2.50;;;;;;;;;;5041031;28;20209;-56
2022/04/24 06:00:11;;;;;;;2.90;2.70;;;;;;;;;;5046048;28;20212;-57
2022/04/24 06:02:39;;;;;;;2.95;2.75;;;;;;;;;;5035569;28;20235;-56
2022/04/24 06:05:07;;;;;;;2.90;2.70;;;;;;;;;;5049185;28;20622;-56
2022/04/24 06:07:34;;;;;;;2.60;2.40;;;;;;;;;;5054691;28;20208;-56
2022/04/24 06:10:02;;;;;;;2.97;2.78;;;;;;;;;;5055404;28;20216;-56
2022/04/24 06:12:29;;;;;;;2.80;2.60;;;;;;;;;;5054815;28;20595;-56
2022/04/24 06:15:02;;;;;;;2.30;2.20;;;;;;;;;;5055153;28;20205;-57
2022/04/24 06:17:30;;;;;;;2.95;2.75;;;;;;;;;;5038647;28;20201;-57
2022/04/24 06:19:57;;;;;;;2.83;2.63;;;;;;;;;;5034991;28;20217;-57
2022/04/24 06:22:25;;;;;;;2.80;2.60;;;;;;;;;;5035172;28;20213;-56
2022/04/24 06:24:52;;;;;;;2.67;2.47;;;;;;;;;;5034986;28;20635;-57
2022/04/24 06:27:19;;;;;;;2.63;2.45;;;;;;;;;;5034907;28;20267;-57
2022/04/24 06:29:47;;;;;;;2.72;2.53;;;;;;;;;;5035091;28;20209;-56
2022/04/24 06:32:16;;;;;;;2.92;2.72;;;;;;;;;;5035205;28;20202;-56
2022/04/24 06:34:43;;;;;;;2.88;2.67;;;;;;;;;;5047489;28;20204;-57
2022/04/24 06:37:10;;;;;;;2.72;2.60;;;;;;;;;;5055156;28;20567;-57
2022/04/24 06:39:38;;;;;;;2.65;2.45;;;;;;;;;;5039905;28;20205;-56
2022/04/24 06:42:05;;;;;;;2.97;2.78;;;;;;;;;;5053625;28;20201;-56
2022/04/24 06:44:33;;;;;;;2.72;2.53;;;;;;;;;;5055975;28;20221;-57
2022/04/24 06:47:01;;;;;;;2.90;2.70;;;;;;;;;;5037921;28;20208;-56
2022/04/24 06:49:29;;;;;;;3.00;2.80;;;;;;;;;;5038186;28;20480;-56
2022/04/24 06:51:57;;;;;;;3.00;2.80;;;;;;;;;;5038853;28;20261;-56
2022/04/24 06:54:24;;;;;;;2.70;2.50;;;;;;;;;;5038373;28;20198;-57
2022/04/24 06:56:52;;;;;;;2.88;2.67;;;;;;;;;;5046992;28;20193;-56
2022/04/24 06:59:19;;;;;;;3.15;2.95;;;;;;;;;;5056481;28;20208;-56
2022/04/24 07:01:46;;;;;;;3.17;2.97;;;;;;;;;;5057933;28;20205;-56
2022/04/24 07:04:14;;;;;;;3.08;2.88;;;;;;;;;;5057313;28;20216;-57
2022/04/24 07:06:42;;;;;;;3.00;2.80;;;;;;;;;;5056992;28;20201;-57
2022/04/24 07:09:10;;;;;;;2.58;2.47;;;;;;;;;;5048170;28;20205;-56
2022/04/24 07:11:38;;;;;;;2.95;2.75;;;;;;;;;;5055762;28;20205;-56
2022/04/24 07:14:05;;;;;;;3.08;2.88;;;;;;;;;;5057816;28;20292;-56
2022/04/24 07:16:35;;;;;;;3.20;3.00;;;;;;;;;;5057055;28;20205;-56
2022/04/24 07:19:02;;;;;;;3.40;3.20;;;;;;;;;;5057818;28;20283;-56
2022/04/24 07:21:29;;;;;;;3.10;2.90;;;;;;;;;;5058000;28;20227;-56
2022/04/24 07:23:58;;;;;;;3.08;2.88;;;;;;;;;;5057734;28;20213;-57
2022/04/24 07:26:25;;;;;;;3.00;2.80;;;;;;;;;;5052304;28;20198;-56
2022/04/24 07:28:53;;;;;;;3.33;3.13;;;;;;;;;;5049500;28;20196;-56
2022/04/24 07:31:20;;;;;;;3.40;3.20;;;;;;;;;;5056939;28;20204;-57
2022/04/24 07:33:47;;;;;;;3.08;2.88;;;;;;;;;;5056844;28;20209;-57
2022/04/24 07:36:15;;;;;;;3.42;3.13;;;;;;;;;;5041752;28;20202;-56
2022/04/24 07:38:43;;;;;;;3.20;3.00;;;;;;;;;;5037350;28;20503;-57
2022/04/24 07:41:12;;;;;;;3.28;3.08;;;;;;;;;;5036846;28;20198;-57
2022/04/24 07:43:39;;;;;;;3.40;3.20;;;;;;;;;;5041236;28;20646;-57
2022/04/24 07:46:06;;;;;;;3.60;3.40;;;;;;;;;;5037997;28;20229;-56
2022/04/24 07:48:34;;;;;;;4.10;3.78;;;;;;;;;;5047263;28;20209;-56
2022/04/24 07:51:02;;;;;;;3.45;3.25;;;;;;;;;;5057177;28;20205;-56
2022/04/24 07:53:29;;;;;;;3.65;3.35;;;;;;;;;;5057349;28;20613;-57
2022/04/24 07:55:56;;;;;;;3.40;3.20;;;;;;;;;;5057085;28;20489;-57
2022/04/24 07:58:25;;;;;;;3.45;3.25;;;;;;;;;;5041394;28;20204;-57
2022/04/24 08:00:52;;;;;;;3.53;3.28;;;;;;;;;;5049274;28;20203;-57
2022/04/24 08:03:20;;;;;;;3.80;3.50;;;;;;;;;;5057496;28;20205;-57
2022/04/24 08:05:48;;;;;;;3.78;3.47;;;;;;;;;;5036529;28;20287;-56
2022/04/24 08:08:17;;;;;;;3.38;3.17;;;;;;;;;;5036769;28;20219;-56
2022/04/24 08:10:47;;;;;;;3.67;3.45;;;;;;;;;;5036596;28;20236;-57
2022/04/24 08:13:14;;;;;;;3.92;3.72;;;;;;;;;;5037345;28;20245;-57
2022/04/24 08:15:43;;;;;;;3.70;3.40;;;;;;;;;;5037073;28;20209;-57
2022/04/24 08:18:11;;;;;;;3.78;3.47;;;;;;;;;;5037612;28;20586;-56
2022/04/24 08:20:39;;;;;;;4.05;3.58;;;;;;;;;;5036243;28;20291;-56
2022/04/24 08:23:06;;;;;;;3.67;3.38;;;;;;;;;;5036124;28;20197;-56
2022/04/24 08:25:35;;;;;;;3.65;3.40;;;;;;;;;;5036267;28;20646;-57
2022/04/24 08:28:04;;;;;;;3.78;3.53;;;;;;;;;;5036565;28;20217;-56
2022/04/24 08:30:32;;;;;;;3.85;3.55;;;;;;;;;;5036177;28;20206;-56
2022/04/24 08:33:01;;;;;;;3.90;3.60;;;;;;;;;;5036478;28;20240;-57
2022/04/24 08:35:28;;;;;;;3.50;3.30;;;;;;;;;;5036043;28;20304;-57
2022/04/24 08:37:56;;;;;;;3.55;3.25;;;;;;;;;;5034763;28;20209;-57
2022/04/24 08:40:24;;;;;;;3.70;3.40;;;;;;;;;;5035184;28;20198;-56
2022/04/24 08:42:52;;;;;;;3.75;3.47;;;;;;;;;;5035651;28;20208;-56
2022/04/24 08:45:19;;;;;;;3.75;3.53;;;;;;;;;;5034663;28;20221;-56
2022/04/24 08:47:47;;;;;;;3.85;3.42;;;;;;;;;;5042940;28;20209;-57
2022/04/24 08:50:16;;;;;;;3.97;3.67;;;;;;;;;;5045272;28;20201;-57
2022/04/24 08:52:44;;;;;;;3.70;3.50;;;;;;;;;;5049230;28;20271;-56
2022/04/24 08:55:12;;;;;;;3.85;3.60;;;;;;;;;;5035946;28;20201;-57
2022/04/24 08:57:40;;;;;;;3.92;3.60;;;;;;;;;;5040070;28;20208;-56
2022/04/24 09:00:08;;;;;;;3.97;3.67;;;;;;;;;;5053867;28;20209;-57
2022/04/24 09:02:36;;;;;;;4.18;3.80;;;;;;;;;;5054554;28;20213;-57
2022/04/24 09:05:06;;;;;;;3.53;3.25;;;;;;;;;;5053611;28;20217;-57
2022/04/24 09:07:36;;;;;;;4.00;3.70;;;;;;;;;;5054440;28;20266;-57
2022/04/24 09:10:05;;;;;;;4.05;3.75;;;;;;;;;;5049389;28;20289;-57
2022/04/24 09:12:33;;;;;;;4.07;3.70;;;;;;;;;;5035501;28;20198;-57
2022/04/24 09:15:01;;;;;;;3.97;3.40;;;;;;;;;;5035609;28;20209;-57
2022/04/24 09:17:30;;;;;;;3.78;3.55;;;;;;;;;;5035662;28;20591;-57
2022/04/24 09:19:58;;;;;;;3.65;3.35;;;;;;;;;;5035751;28;20213;-57
2022/04/24 09:22:26;;;;;;;3.97;3.67;;;;;;;;;;5035578;28;20206;-56
2022/04/24 09:24:55;;;;;;;3.78;3.47;;;;;;;;;;5035611;28;20229;-57
2022/04/24 09:27:24;;;;;;;3.90;3.60;;;;;;;;;;5045711;28;20255;-57
2022/04/24 09:29:54;;;;;;;3.63;3.33;;;;;;;;;;5054707;28;20213;-57
2022/04/24 09:32:21;;;;;;;3.50;3.20;;;;;;;;;;5055094;28;20237;-57
2022/04/24 09:34:49;;;;;;;3.78;3.47;;;;;;;;;;5035262;28;20213;-57
2022/04/24 09:37:16;;;;;;;3.85;3.30;;;;;;;;;;5035162;28;20208;-57
2022/04/24 09:39:43;;;;;;;3.70;3.35;;;;;;;;;;5053713;28;20200;-57
2022/04/24 09:42:13;;;;;;;3.67;2.95;;;;;;;;;;5053759;28;20583;-56
2022/04/24 09:44:42;;;;;;;4.65;3.60;;;;;;;;;;5035064;28;20275;-57
2022/04/24 09:47:09;;;;;;;4.10;3.55;;;;;;;;;;5034285;28;20205;-57
2022/04/24 09:49:38;;;;;;;3.50;3.20;;;;;;;;;;5052904;28;20200;-57
2022/04/24 09:52:15;;;;;;;3.80;3.50;;;;;;;;;;5054987;28;20229;-57
2022/04/24 09:54:43;;;;;;;3.65;3.40;;;;;;;;;;5035474;28;20783;-57
2022/04/24 09:57:12;;;;;;;3.80;3.42;;;;;;;;;;5040612;28;20201;-56
2022/04/24 09:59:41;;;;;;;3.42;3.13;;;;;;;;;;5041180;28;20308;-57
2022/04/24 10:02:09;;;;;;;3.85;3.55;;;;;;;;;;5035615;28;20209;-57
2022/04/24 10:04:38;;;;;;;3.42;3.13;;;;;;;;;;5054998;28;20564;-57
2022/04/24 10:07:06;;;;;;;3.95;3.13;;;;;;;;;;5055338;28;20208;-57
2022/04/24 10:09:34;;;;;;;5.30;3.80;;;;;;;;;;5055766;28;20205;-57
2022/04/24 10:12:06;;;;;;;3.92;3.53;;;;;;;;;;5055918;28;20278;-57
2022/04/24 10:14:35;;;;;;;5.10;3.65;;;;;;;;;;5052778;28;20198;-57
2022/04/24 10:17:13;;;;;;;3.78;3.47;;;;;;;;;;5039141;28;20587;-57
2022/04/24 10:19:56;;;;;;;4.60;3.70;;;;;;;;;;5039170;28;20227;-57
2022/04/24 10:22:32;;;;;;;3.67;3.38;;;;;;;;;;5039478;28;20602;-57
2022/04/24 10:25:00;;;;;;;3.85;3.20;;;;;;;;;;5039250;28;20236;-57
2022/04/24 10:27:37;;;;;;;4.20;3.50;;;;;;;;;;5038853;28;20514;-57
2022/04/24 10:30:05;;;;;;;4.15;3.67;;;;;;;;;;5044147;28;20197;-57
2022/04/24 10:32:34;;;;;;;4.22;3.40;;;;;;;;;;5047200;28;20198;-57
2022/04/24 10:35:01;;;;;;;4.15;3.45;;;;;;;;;;5046990;28;20221;-57
2022/04/24 10:37:30;;;;;;;5.43;3.58;;;;;;;;;;5041251;28;20247;-57
2022/04/24 10:39:58;;;;;;;4.40;4.00;;;;;;;;;;5053246;28;20211;-57
2022/04/24 10:42:32;;;;;;;5.35;4.25;;;;;;;;;;5039692;28;20333;-57
2022/04/24 10:45:05;;;;;;;3.95;3.47;;;;;;;;;;5054419;28;20252;-57
2022/04/24 10:47:43;;;;;;;4.70;3.67;;;;;;;;;;5037601;28;20208;-57
2022/04/24 10:50:11;;;;;;;4.15;3.70;;;;;;;;;;5037840;28;20209;-56
2022/04/24 10:52:41;;;;;;;4.13;3.83;;;;;;;;;;5036419;28;20241;-57
2022/04/24 10:55:09;;;;;;;7.15;3.78;;;;;;;;;;5036947;28;20202;-57
2022/04/24 10:57:41;;;;;;;4.32;3.60;;;;;;;;;;5037049;28;20198;-57
2022/04/24 11:00:16;;;;;;;3.90;3.60;;;;;;;;;;5036531;28;20499;-56
2022/04/24 11:02:44;;;;;;;4.35;3.50;;;;;;;;;;5037373;28;20503;-56
2022/04/24 11:05:12;;;;;;;4.10;3.70;;;;;;;;;;5037619;28;20225;-57
2022/04/24 11:07:40;;;;;;;4.40;4.00;;;;;;;;;;5038277;28;20220;-56
2022/04/24 11:10:10;;;;;;;3.83;3.47;;;;;;;;;;5043060;28;20684;-57
2022/04/24 11:12:41;;;;;;;4.38;3.97;;;;;;;;;;5051127;28;20244;-56
2022/04/24 11:15:10;;;;;;;4.75;4.00;;;;;;;;;;5038282;28;20244;-57
2022/04/24 11:17:38;;;;;;;4.53;3.95;;;;;;;;;;5036825;28;20453;-57
2022/04/24 11:20:09;;;;;;;5.05;3.90;;;;;;;;;;5044509;28;20213;-57
2022/04/24 11:22:47;;;;;;;3.90;3.60;;;;;;;;;;5054971;28;20557;-56
2022/04/24 11:25:15;;;;;;;4.75;4.25;;;;;;;;;;5057179;28;20228;-56
2022/04/24 11:27:44;;;;;;;4.47;3.90;;;;;;;;;;5052565;28;20209;-56
2022/04/24 11:30:18;;;;;;;4.13;3.80;;;;;;;;;;5037309;28;20486;-56
2022/04/24 11:32:56;;;;;;;5.07;4.18;;;;;;;;;;5037776;28;20236;-56
2022/04/24 11:35:28;;;;;;;4.07;3.60;;;;;;;;;;5037944;28;20216;-57
2022/04/24 11:37:56;;;;;;;4.82;4.30;;;;;;;;;;5038292;28;20198;-57
2022/04/24 11:40:24;;;;;;;4.45;3.90;;;;;;;;;;5053264;28;20208;-57
2022/04/24 11:42:52;;;;;;;4.95;4.05;;;;;;;;;;5036640;28;20213;-57
2022/04/24 11:50:54;;;;;;;5.43;4.18;;;;;;;;;;5036192;28;20188;-57
2022/04/24 11:53:21;;;;;;;4.53;4.13;;;;;;;;;;5035456;28;20216;-57
2022/04/24 11:56:04;;;;;;;6.15;4.38;;;;;;;;;;5035098;28;20209;-56
2022/04/24 11:58:35;;;;;;;4.60;4.05;;;;;;;;;;5035285;28;20509;-57
2022/04/24 12:01:04;;;;;;;4.57;4.18;;;;;;;;;;5034903;28;20214;-56
2022/04/24 12:03:32;;;;;;;5.68;4.53;;;;;;;;;;5035135;28;20212;-56
2022/04/24 12:06:01;;;;;;;6.63;4.72;;;;;;;;;;5036310;28;20225;-56
2022/04/24 12:08:39;;;;;;;5.45;4.18;;;;;;;;;;5035810;28;20209;-56
2022/04/24 12:11:07;;;;;;;5.15;4.28;;;;;;;;;;5036146;28;20206;-56
2022/04/24 12:13:34;;;;;;;4.78;4.22;;;;;;;;;;5036709;28;20206;-56
2022/04/24 12:16:02;;;;;;;4.95;4.38;;;;;;;;;;5036004;28;20210;-57
2022/04/24 12:18:29;;;;;;;7.35;4.13;;;;;;;;;;5036040;28;20213;-57
2022/04/24 12:20:57;;;;;;;5.53;4.80;;;;;;;;;;5036819;28;20201;-56
2022/04/24 12:23:26;;;;;;;4.53;4.13;;;;;;;;;;5036559;28;20212;-56
2022/04/24 12:25:55;;;;;;;6.05;4.32;;;;;;;;;;5036664;28;20229;-56
2022/04/24 12:28:30;;;;;;;5.53;4.20;;;;;;;;;;5036714;28;20471;-56
2022/04/24 12:30:58;;;;;;;4.28;3.88;;;;;;;;;;5035778;28;20267;-56
2022/04/24 12:33:25;;;;;;;4.80;4.40;;;;;;;;;;5038452;28;20209;-56
2022/04/24 12:35:53;;;;;;;4.65;4.25;;;;;;;;;;5056042;28;20201;-56
2022/04/24 12:38:22;;;;;;;5.43;3.78;;;;;;;;;;5054441;28;20189;-56
2022/04/24 12:40:59;;;;;;;4.13;3.83;;;;;;;;;;5053887;28;20314;-56
2022/04/24 12:43:27;;;;;;;4.75;4.35;;;;;;;;;;5035214;28;20220;-56
2022/04/24 12:45:56;;;;;;;4.65;4.22;;;;;;;;;;5044127;28;20221;-56
2022/04/24 12:48:24;;;;;;;4.75;3.75;;;;;;;;;;5055545;28;20216;-56
2022/04/24 12:50:51;;;;;;;4.40;4.00;;;;;;;;;;5037241;28;20213;-56
2022/04/24 12:53:19;;;;;;;4.30;3.90;;;;;;;;;;5035100;28;20201;-56
2022/04/24 12:55:49;;;;;;;4.72;3.85;;;;;;;;;;5035634;28;20213;-56
2022/04/24 12:58:17;;;;;;;4.65;3.78;;;;;;;;;;5035279;28;20202;-56
2022/04/24 13:00:45;;;;;;;4.13;3.70;;;;;;;;;;5035990;28;20225;-56
2022/04/24 13:03:14;;;;;;;4.50;4.10;;;;;;;;;;5035202;28;20588;-56
2022/04/24 13:05:44;;;;;;;4.75;4.28;;;;;;;;;;5034654;28;20268;-56
2022/04/24 13:08:11;;;;;;;4.22;3.90;;;;;;;;;;5036175;28;20202;-56
2022/04/24 13:10:39;;;;;;;3.92;3.60;;;;;;;;;;5035350;28;20743;-55
2022/04/24 13:13:07;;;;;;;5.63;3.83;;;;;;;;;;5034969;28;20202;-55
2022/04/24 13:15:37;;;;;;;3.88;3.58;;;;;;;;;;5041272;28;20204;-55
2022/04/24 13:18:07;;;;;;;3.70;3.40;;;;;;;;;;5053934;28;20201;-55
2022/04/24 13:20:36;;;;;;;3.83;3.53;;;;;;;;;;5055066;28;20223;-55
2022/04/24 13:23:04;;;;;;;4.20;3.80;;;;;;;;;;5042205;28;20198;-55
2022/04/24 13:25:31;;;;;;;4.10;3.80;;;;;;;;;;5034811;28;20228;-55
2022/04/24 13:27:59;;;;;;;3.90;3.60;;;;;;;;;;5034864;28;20205;-55
2022/04/24 13:30:26;;;;;;;4.20;3.80;;;;;;;;;;5033945;28;20208;-55
2022/04/24 13:32:55;;;;;;;3.80;3.50;;;;;;;;;;5033873;28;20267;-55
2022/04/24 13:35:23;;;;;;;4.10;3.70;;;;;;;;;;5034642;28;20210;-55
2022/04/24 13:40:35;;;;;;;3.70;3.40;;;;;;;;;;5055071;28;20508;-55
2022/04/24 13:43:02;;;;;;;3.80;3.50;;;;;;;;;;5039749;28;20205;-55
2022/04/24 13:45:30;;;;;;;3.75;3.45;;;;;;;;;;5038656;28;20190;-55
2022/04/24 13:48:00;;;;;;;3.88;3.58;;;;;;;;;;5043797;28;20252;-55
2022/04/24 13:50:29;;;;;;;3.55;3.25;;;;;;;;;;5060589;28;20632;-55
2022/04/24 13:52:56;;;;;;;3.78;3.38;;;;;;;;;;5060475;28;20267;-55
2022/04/24 13:55:24;;;;;;;3.50;3.20;;;;;;;;;;5046692;28;20630;-55
2022/04/24 13:57:51;;;;;;;3.50;3.20;;;;;;;;;;5045633;28;20258;-55
2022/04/24 14:00:19;;;;;;;3.65;3.35;;;;;;;;;;5046007;28;20741;-55
2022/04/24 14:02:46;;;;;;;3.50;3.20;;;;;;;;;;5040188;28;20196;-55
2022/04/24 14:05:15;;;;;;;3.17;2.97;;;;;;;;;;5040328;28;20213;-55
2022/04/24 14:07:43;;;;;;;3.13;2.80;;;;;;;;;;5039941;28;20652;-55
2022/04/24 14:10:10;;;;;;;3.40;3.10;;;;;;;;;;5040638;28;20201;-55
2022/04/24 14:12:38;;;;;;;3.20;3.00;;;;;;;;;;5040927;28;20209;-55
2022/04/24 14:15:06;;;;;;;3.35;3.05;;;;;;;;;;5040745;28;20206;-55
2022/04/24 14:17:34;;;;;;;3.00;2.80;;;;;;;;;;5040750;28;20284;-55
2022/04/24 14:20:01;;;;;;;3.20;3.00;;;;;;;;;;5041883;28;20491;-56
2022/04/24 14:22:30;;;;;;;3.30;3.00;;;;;;;;;;5041459;28;20563;-56
2022/04/24 14:24:57;;;;;;;3.20;2.90;;;;;;;;;;5041271;28;20206;-55
2022/04/24 14:27:25;;;;;;;3.10;2.80;;;;;;;;;;5041179;28;20236;-55
2022/04/24 14:29:52;;;;;;;3.38;3.08;;;;;;;;;;5040965;28;20206;-55
2022/04/24 14:32:21;;;;;;;3.38;3.08;;;;;;;;;;5041038;28;20507;-56
2022/04/24 14:34:48;;;;;;;3.08;2.78;;;;;;;;;;5040790;28;20212;-56
2022/04/24 14:37:15;;;;;;;3.55;3.28;;;;;;;;;;5040397;28;20252;-56
2022/04/24 14:39:45;;;;;;;3.28;3.08;;;;;;;;;;5040162;28;20701;-56
2022/04/24 14:42:12;;;;;;;3.28;3.03;;;;;;;;;;5040494;28;20201;-56
2022/04/24 14:44:39;;;;;;;3.35;3.05;;;;;;;;;;5040582;28;20198;-56
2022/04/24 14:58:08;;;;;;;4.55;2.80;;;;;;;;;;5039281;28;20300;-56
2022/04/24 15:00:37;;;;;;;2.97;2.78;;;;;;;;;;5038780;28;20213;-56
2022/04/24 15:03:06;;;;;;;2.83;2.53;;;;;;;;;;5038019;28;20284;-56
2022/04/24 15:05:35;;;;;;;3.08;2.70;;;;;;;;;;5048828;28;20197;-56
2022/04/24 15:08:03;;;;;;;3.05;2.85;;;;;;;;;;5056202;28;20632;-56